Time;durP1;ratioP1;P1;durP2;ratioP2;P2;SDS_P1;SDS_P2;PMS_P1;PMS_P2;Temp;Humidity;BMP_temperature;BMP_pressure;BME280_temperature;BME280_humidity;BME280_pressure;Samples;Min_cycle;Max_cycle;Signal;HPM_P1;HPM_P2
2023/10/17 00:01:21;;;;;;;0.77;0.65;;;;;;;9.10;89.04;102230.63;4990339;28;100977;-28
2023/10/17 00:03:47;;;;;;;1.58;0.73;;;;;;;9.10;88.45;102226.09;4990445;28;101071;-28
2023/10/17 00:06:16;;;;;;;1.20;0.98;;;;;;;9.07;88.54;102228.91;4991970;28;96563;-28
2023/10/17 00:08:42;;;;;;;1.38;0.90;;;;;;;9.03;88.78;102216.41;4991006;28;96828;-28
2023/10/17 00:11:12;;;;;;;1.88;0.93;;;;;;;9.01;88.60;102215.63;4991765;28;99315;-30
2023/10/17 00:13:45;;;;;;;2.78;0.90;;;;;;;9.00;88.73;102227.34;4990441;28;101066;-32
2023/10/17 00:16:17;;;;;;;2.20;1.08;;;;;;;8.95;88.75;102214.91;4990130;28;96825;-29
2023/10/17 00:18:42;;;;;;;1.50;0.93;;;;;;;8.97;88.89;102210.34;4990615;28;96802;-28
2023/10/17 00:21:20;;;;;;;2.00;1.15;;;;;;;9.02;88.80;102213.78;4990431;28;98075;-29
2023/10/17 00:23:46;;;;;;;1.42;0.88;;;;;;;9.03;88.89;102211.00;4991643;28;99168;-29
2023/10/17 00:26:12;;;;;;;2.80;1.23;;;;;;;8.99;88.61;102209.38;4992031;28;96476;-28
2023/10/17 00:28:38;;;;;;;1.48;1.00;;;;;;;9.00;88.88;102216.53;4990398;28;96893;-28
2023/10/17 00:31:04;;;;;;;1.38;0.88;;;;;;;8.96;88.86;102197.75;4991608;28;99305;-28
2023/10/17 00:33:32;;;;;;;1.17;0.80;;;;;;;8.89;88.46;102197.06;4991911;28;97838;-28
2023/10/17 00:35:57;;;;;;;1.67;1.00;;;;;;;8.89;88.89;102203.38;4990210;28;96548;-29
2023/10/17 00:38:23;;;;;;;1.45;1.08;;;;;;;8.89;88.62;102208.78;4991522;28;96835;-28
2023/10/17 00:40:51;;;;;;;2.00;1.00;;;;;;;8.95;88.95;102206.81;4990894;28;100020;-29
2023/10/17 00:43:16;;;;;;;1.52;0.90;;;;;;;8.88;88.57;102204.31;4991462;28;99748;-29
2023/10/17 00:45:46;;;;;;;0.85;0.80;;;;;;;8.86;88.41;102192.66;4991305;28;96840;-29
2023/10/17 00:48:22;;;;;;;0.70;0.60;;;;;;;8.92;88.97;102197.00;4991364;28;96806;-28
2023/10/17 00:50:52;;;;;;;0.85;0.80;;;;;;;8.91;88.49;102201.53;4991420;28;98132;-28
2023/10/17 00:53:20;;;;;;;4.00;0.93;;;;;;;8.89;88.76;102194.38;4991168;28;97794;-29
2023/10/17 00:55:55;;;;;;;2.60;0.80;;;;;;;8.91;88.87;102197.91;4989927;28;96554;-28
2023/10/17 00:58:24;;;;;;;1.13;0.70;;;;;;;8.95;88.45;102201.41;4990362;28;96748;-28
2023/10/17 01:01:09;;;;;;;2.22;0.98;;;;;;;8.89;89.02;102195.28;4993312;28;100869;-28
2023/10/17 01:03:44;;;;;;;0.90;0.60;;;;;;;8.96;89.09;102201.34;4994842;28;97851;-29
2023/10/17 01:08:54;;;;;;;1.40;0.82;;;;;;;8.93;88.57;102201.44;4993180;28;96590;-28
2023/10/17 01:11:20;;;;;;;2.00;0.80;;;;;;;8.90;88.50;102188.94;4994624;28;97915;-28
2023/10/17 01:13:49;;;;;;;1.02;0.70;;;;;;;8.91;88.93;102188.00;4993136;28;100726;-28
2023/10/17 01:16:16;;;;;;;1.35;0.85;;;;;;;8.93;88.59;102194.22;4994574;28;96719;-28
2023/10/17 01:18:45;;;;;;;2.58;1.08;;;;;;;8.89;88.70;102189.88;4993303;28;96949;-28
2023/10/17 01:21:14;;;;;;;1.23;0.82;;;;;;;8.85;88.59;102184.63;4993153;28;99447;-28
2023/10/17 01:23:40;;;;;;;2.60;1.00;;;;;;;8.85;88.80;102185.50;4993253;28;100779;-28
2023/10/17 01:26:09;;;;;;;2.72;0.90;;;;;;;8.84;88.94;102172.94;4993131;28;96800;-28
2023/10/17 01:28:35;;;;;;;1.95;1.05;;;;;;;8.87;88.83;102171.94;4993127;28;96863;-28
2023/10/17 01:31:03;;;;;;;1.25;0.80;;;;;;;8.87;88.89;102175.53;4992033;28;100963;-29
2023/10/17 01:33:31;;;;;;;1.30;0.70;;;;;;;8.85;88.57;102157.59;4994114;28;99346;-28
2023/10/17 01:35:58;;;;;;;1.20;0.63;;;;;;;8.85;88.79;102161.19;4992824;28;96792;-29
2023/10/17 01:38:26;;;;;;;0.75;0.63;;;;;;;8.89;88.53;102170.06;4992836;28;96817;-30
2023/10/17 01:40:53;;;;;;;0.65;0.50;;;;;;;8.88;88.45;102166.47;4992658;28;100687;-28
2023/10/17 01:43:19;;;;;;;0.77;0.77;;;;;;;8.85;88.74;102152.19;4992557;28;100980;-28
2023/10/17 01:45:48;;;;;;;2.08;0.98;;;;;;;8.77;88.46;102135.34;4993815;28;96805;-28
2023/10/17 01:48:13;;;;;;;4.32;0.80;;;;;;;8.83;88.22;102148.66;4993160;28;96812;-28
2023/10/17 01:50:39;;;;;;;1.05;0.70;;;;;;;8.77;88.34;102132.63;4992428;28;101008;-28
2023/10/17 01:53:12;;;;;;;2.90;1.20;;;;;;;8.77;88.29;102132.63;4993709;28;99151;-29
2023/10/17 01:55:42;;;;;;;2.65;0.95;;;;;;;8.78;88.35;102139.81;4992188;28;96781;-28
2023/10/17 01:58:07;;;;;;;1.48;0.80;;;;;;;8.77;88.34;102140.75;4993836;28;96676;-29
2023/10/17 02:02:59;;;;;;;1.85;0.88;;;;;;;8.74;88.21;102122.81;4993844;28;97790;-28
2023/10/17 02:05:25;;;;;;;1.20;0.60;;;;;;;8.73;88.18;102136.41;4992460;28;96652;-28
2023/10/17 02:07:51;;;;;;;0.57;0.52;;;;;;;8.64;88.01;102130.34;4992352;28;98049;-28
2023/10/17 02:10:21;;;;;;;1.73;0.82;;;;;;;8.66;87.89;102133.00;4993633;28;97374;-28
2023/10/17 02:12:48;;;;;;;1.50;0.95;;;;;;;8.64;88.15;102129.47;4992517;28;101396;-28
2023/10/17 02:15:19;;;;;;;5.35;0.77;;;;;;;8.71;88.33;102141.84;4992131;28;96567;-28
2023/10/17 02:17:45;;;;;;;2.97;0.93;;;;;;;8.69;88.77;102141.00;4992403;28;96768;-30
2023/10/17 02:23:02;;;;;;;3.78;0.60;;;;;;;8.79;88.52;102153.25;4993262;28;97807;-29
2023/10/17 02:25:32;;;;;;;0.75;0.57;;;;;;;8.74;88.05;102132.75;4992269;28;96726;-28
2023/10/17 02:27:58;;;;;;;1.15;0.80;;;;;;;8.69;88.15;102141.00;4992100;28;96798;-28
2023/10/17 02:30:24;;;;;;;1.50;0.90;;;;;;;8.68;88.21;102136.56;4991926;28;101014;-28
2023/10/17 02:32:53;;;;;;;1.27;0.65;;;;;;;8.71;88.29;102136.44;4993299;28;97378;-28
2023/10/17 02:35:22;;;;;;;0.95;0.70;;;;;;;8.74;88.48;102138.16;4991929;28;96583;-29
2023/10/17 02:37:48;;;;;;;0.73;0.45;;;;;;;8.68;88.59;102139.25;4992401;28;96763;-28
2023/10/17 02:40:20;;;;;;;0.88;0.60;;;;;;;8.68;88.80;102129.31;4993019;28;99636;-29
2023/10/17 02:42:50;;;;;;;1.13;0.60;;;;;;;8.69;89.08;102133.78;4991726;28;101056;-28
2023/10/17 02:45:24;;;;;;;1.42;0.65;;;;;;;8.65;88.73;102124.03;4990497;28;97114;-29
2023/10/17 02:47:54;;;;;;;2.67;0.65;;;;;;;8.63;89.13;102131.28;4993349;28;96528;-28
2023/10/17 02:52:59;;;;;;;1.38;0.77;;;;;;;8.63;88.93;102134.00;4991185;28;97997;-28
2023/10/17 02:55:25;;;;;;;0.98;0.32;;;;;;;8.69;88.84;102135.59;4991554;28;96632;-28
2023/10/17 02:57:54;;;;;;;1.05;0.57;;;;;;;8.68;88.74;102129.31;4991633;28;96828;-28
2023/10/17 03:00:25;;;;;;;1.60;0.75;;;;;;;8.66;88.68;102128.47;4991537;28;101466;-29
2023/10/17 03:02:58;;;;;;;2.10;0.63;;;;;;;8.68;89.10;102129.31;4993243;28;97844;-28
2023/10/17 03:05:24;;;;;;;1.55;0.70;;;;;;;8.66;89.02;102130.31;4991694;28;96715;-28
2023/10/17 03:07:50;;;;;;;2.70;1.02;;;;;;;8.56;89.19;102121.63;4991525;28;96784;-28
2023/10/17 03:10:39;;;;;;;0.98;0.75;;;;;;;8.63;88.62;102135.81;4990856;28;100924;-29
2023/10/17 03:16:00;;;;;;;0.57;0.40;;;;;;;8.58;88.52;102135.97;4990922;28;97304;-28
2023/10/17 03:18:25;;;;;;;1.52;0.80;;;;;;;8.56;88.53;102128.84;4992662;28;96672;-29
2023/10/17 03:20:51;;;;;;;1.38;0.80;;;;;;;8.59;88.69;102143.13;4992463;28;97190;-28
2023/10/17 03:23:20;;;;;;;1.42;0.50;;;;;;;8.55;88.26;102129.75;4991437;28;99654;-28
2023/10/17 03:25:48;;;;;;;2.08;0.93;;;;;;;8.52;88.50;102137.97;4991152;28;96554;-28
2023/10/17 03:28:15;;;;;;;0.50;0.40;;;;;;;8.50;88.71;102125.38;4992906;28;96797;-28
2023/10/17 03:30:42;;;;;;;0.75;0.52;;;;;;;8.57;89.32;102130.59;4992397;28;99595;-28
2023/10/17 03:33:26;;;;;;;0.55;0.43;;;;;;;8.54;88.95;102122.63;4992621;28;97882;-28
2023/10/17 03:38:30;;;;;;;1.08;0.70;;;;;;;8.50;88.97;102124.50;4990227;28;96603;-28
2023/10/17 03:41:06;;;;;;;1.73;0.63;;;;;;;8.47;88.95;102124.63;4990813;28;101162;-28
2023/10/17 03:43:45;;;;;;;0.35;0.28;;;;;;;8.54;88.85;102144.22;4991825;28;99753;-28
2023/10/17 03:46:15;;;;;;;0.90;0.60;;;;;;;8.50;88.75;102129.91;4990276;28;96849;-28
2023/10/17 03:48:49;;;;;;;0.60;0.32;;;;;;;8.47;88.75;102149.81;4990903;28;96856;-28
2023/10/17 03:51:21;;;;;;;3.67;0.90;;;;;;;8.46;88.75;102142.66;4990734;28;101083;-29
2023/10/17 03:53:47;;;;;;;1.45;0.68;;;;;;;8.39;88.48;102146.44;4991290;28;100794;-28
2023/10/17 03:56:23;;;;;;;0.60;0.35;;;;;;;8.40;88.84;102150.94;4992014;28;96465;-28
2023/10/17 03:59:18;;;;;;;0.90;0.55;;;;;;;8.42;88.69;102153.59;4992102;28;96769;-30
2023/10/17 04:01:48;;;;;;;3.08;0.60;;;;;;;8.44;88.68;102155.31;4990011;28;101435;-28
2023/10/17 04:04:18;;;;;;;2.45;0.40;;;;;;;8.42;88.93;102154.47;4990689;28;101209;-29
2023/10/17 04:06:48;;;;;;;0.40;0.40;;;;;;;8.42;88.81;102151.78;4990777;28;96701;-28
2023/10/17 04:09:37;;;;;;;2.10;0.43;;;;;;;8.48;88.75;102156.94;4990544;28;96687;-28
2023/10/17 04:12:09;;;;;;;1.77;0.47;;;;;;;8.43;88.87;102156.22;4991637;28;98787;-28
2023/10/17 04:14:34;;;;;;;0.63;0.40;;;;;;;8.46;89.19;102161.56;4992052;28;97389;-28
2023/10/17 04:17:02;;;;;;;0.55;0.50;;;;;;;8.43;88.99;102158.03;4991638;28;96715;-28
2023/10/17 04:19:39;;;;;;;0.60;0.40;;;;;;;8.38;88.92;102155.44;4992273;28;96723;-28
2023/10/17 04:22:07;;;;;;;0.93;0.45;;;;;;;8.28;89.16;102149.47;4991930;28;98015;-28
2023/10/17 04:24:36;;;;;;;9.50;0.68;;;;;;;8.34;89.22;102151.06;4991819;28;97814;-29
2023/10/17 04:29:44;;;;;;;0.47;0.35;;;;;;;8.32;89.29;102152.97;4991467;28;96687;-28
2023/10/17 04:32:13;;;;;;;1.13;0.60;;;;;;;8.36;89.38;102167.22;4990235;28;100924;-28
2023/10/17 04:34:45;;;;;;;0.30;0.30;;;;;;;8.29;89.33;102150.34;4994865;28;97984;-28
2023/10/17 04:37:16;;;;;;;0.95;0.52;;;;;;;8.30;89.39;102154.81;4993775;28;96779;-28
2023/10/17 04:39:49;;;;;;;1.10;0.60;;;;;;;8.32;89.60;102152.06;4993822;28;96596;-28
2023/10/17 04:42:47;;;;;;;1.30;0.50;;;;;;;8.34;89.61;102151.06;4993703;28;101503;-28
2023/10/17 04:45:06;;;;;;;0.73;0.55;;;;;;;8.27;89.22;102145.00;4993944;28;99306;-28
2023/10/17 04:47:32;;;;;;;0.75;0.60;;;;;;;8.30;89.46;102141.31;4995447;28;96718;-29
2023/10/17 04:49:57;;;;;;;3.10;0.45;;;;;;;8.30;89.08;102130.53;4994996;28;96838;-29
2023/10/17 04:52:30;;;;;;;0.93;0.43;;;;;;;8.25;89.42;102130.66;4994265;28;99653;-29
2023/10/17 04:55:17;;;;;;;1.95;0.73;;;;;;;8.22;89.62;102129.88;4993294;28;100850;-28
2023/10/17 04:57:58;;;;;;;1.00;0.70;;;;;;;8.17;89.45;102131.81;4995286;28;96708;-30
2023/10/17 05:09:00;;;;;;;1.65;0.63;;;;;;;8.12;89.48;102136.50;4993442;28;96774;-28
2023/10/17 06:17:24;;;;;;;1.50;1.20;;;;;;;7.90;91.96;102118.25;4991976;28;96641;-29
2023/10/17 06:19:49;;;;;;;1.58;0.85;;;;;;;7.86;91.52;102105.78;4993552;28;97890;-28
2023/10/17 06:30:48;;;;;;;0.77;0.52;;;;;;;7.88;91.38;102109.31;4985851;28;97018;-29
2023/10/17 06:33:17;;;;;;;2.88;1.15;;;;;;;7.87;91.45;102113.84;4993604;28;100332;-28
2023/10/17 06:35:52;;;;;;;2.42;1.17;;;;;;;7.87;91.28;102124.63;4991873;28;96722;-28
2023/10/17 06:38:17;;;;;;;0.60;0.60;;;;;;;7.79;91.45;102123.06;4993385;28;96646;-28
2023/10/17 06:40:51;;;;;;;1.45;0.82;;;;;;;7.74;91.45;102108.84;4992896;28;97390;-30
2023/10/17 06:43:28;;;;;;;0.55;0.50;;;;;;;7.76;91.71;102129.44;4993030;28;99164;-28
2023/10/17 06:45:57;;;;;;;0.98;0.88;;;;;;;7.77;91.66;102125.84;4992915;28;96684;-29
2023/10/17 06:53:52;;;;;;;;;;;;;;;7.78;91.51;102145.59;4993148;28;97125;-28
2023/10/17 06:56:17;;;;;;;1.45;0.57;;;;;;;7.70;91.59;102128.72;4991839;28;96579;-28
2023/10/17 06:58:44;;;;;;;2.05;0.73;;;;;;;7.69;91.30;102126.97;4992167;28;96861;-29
2023/10/17 07:01:24;;;;;;;0.82;0.60;;;;;;;7.68;91.28;102123.41;4991424;28;101112;-28
2023/10/17 07:03:54;;;;;;;1.45;1.05;;;;;;;7.72;91.38;102133.16;4992805;28;99503;-28
2023/10/17 07:06:24;;;;;;;3.00;1.00;;;;;;;7.65;91.35;102129.78;4990753;28;97293;-28
2023/10/17 07:08:50;;;;;;;1.20;0.82;;;;;;;7.64;91.29;102136.06;4991464;28;97040;-28
2023/10/17 07:16:33;;;;;;;0.98;0.73;;;;;;;7.71;91.22;102138.59;4992369;28;96630;-28
2023/10/17 07:19:09;;;;;;;1.48;0.80;;;;;;;7.68;91.49;102133.31;4992606;28;96755;-29
2023/10/17 07:24:23;;;;;;;1.40;0.57;;;;;;;7.70;91.28;102118.84;4993134;28;97004;-29
2023/10/17 07:26:55;;;;;;;0.50;0.38;;;;;;;7.76;91.10;102134.84;4992576;28;96623;-29
2023/10/17 07:29:22;;;;;;;1.17;0.80;;;;;;;7.79;90.87;102145.53;4992625;28;96627;-28
2023/10/17 07:31:53;;;;;;;1.13;0.75;;;;;;;7.86;91.06;102138.16;4990607;28;100833;-28
2023/10/17 07:34:23;;;;;;;0.63;0.63;;;;;;;7.83;90.89;102132.84;4992363;28;98327;-28
2023/10/17 07:37:11;;;;;;;2.15;0.68;;;;;;;7.90;91.02;102137.13;4991047;28;97017;-29
2023/10/17 07:39:37;;;;;;;1.20;0.70;;;;;;;7.97;90.87;102135.16;4992305;28;96888;-28
2023/10/17 07:42:04;;;;;;;1.02;0.88;;;;;;;7.94;90.62;102128.03;4992252;28;98942;-29
2023/10/17 07:44:34;;;;;;;1.27;0.90;;;;;;;8.01;90.58;102124.22;4990746;28;100440;-28
2023/10/17 07:47:19;;;;;;;2.05;0.95;;;;;;;8.05;90.45;102122.28;4992064;28;96718;-28
2023/10/17 07:49:48;;;;;;;1.25;1.00;;;;;;;8.00;90.23;102111.63;4992268;28;96844;-28
2023/10/17 07:52:17;;;;;;;3.17;1.02;;;;;;;8.07;90.25;102120.44;4988521;28;100986;-29
2023/10/17 07:54:55;;;;;;;1.27;0.93;;;;;;;8.19;90.33;102132.66;4990758;28;100972;-29
2023/10/17 07:57:26;;;;;;;1.67;1.05;;;;;;;8.16;90.52;102119.28;4991682;28;97393;-28
2023/10/17 07:59:52;;;;;;;0.60;0.60;;;;;;;8.31;90.14;102118.78;4990777;28;96703;-29
2023/10/17 08:02:20;;;;;;;1.98;1.30;;;;;;;8.35;90.27;102115.06;4992122;28;98554;-29
2023/10/17 08:04:48;;;;;;;2.20;1.13;;;;;;;8.53;89.72;102116.31;4991596;28;99111;-28
2023/10/17 08:07:20;;;;;;;2.28;1.55;;;;;;;8.67;89.93;102119.44;4991054;28;96614;-28
2023/10/17 08:09:58;;;;;;;2.58;1.30;;;;;;;8.82;88.96;102118.06;4995675;28;96536;-29
2023/10/17 08:12:29;;;;;;;3.20;1.50;;;;;;;8.88;88.18;102117.84;4994593;28;101002;-29
2023/10/17 08:15:19;;;;;;;1.85;1.25;;;;;;;9.05;88.15;102119.94;4994787;28;100964;-29
2023/10/17 08:17:44;;;;;;;2.85;1.58;;;;;;;9.15;87.98;102120.50;4995678;28;96636;-28
2023/10/17 08:22:54;;;;;;;2.17;1.55;;;;;;;9.23;87.09;102113.03;4994615;28;97890;-32
2023/10/17 08:25:30;;;;;;;2.38;1.45;;;;;;;9.29;86.49;102117.31;4996368;28;100991;-28
2023/10/17 08:27:56;;;;;;;2.65;1.27;;;;;;;9.26;86.50;102107.50;4997202;28;96663;-29
2023/10/17 08:30:26;;;;;;;2.40;1.52;;;;;;;9.30;86.64;102116.41;4997027;28;96795;-29
2023/10/17 08:35:39;;;;;;;2.67;1.60;;;;;;;9.28;86.39;102107.47;4997506;28;97720;-28
2023/10/17 08:38:08;;;;;;;2.53;1.48;;;;;;;9.32;86.30;102117.25;4996934;28;96833;-28
2023/10/17 08:40:40;;;;;;;2.92;1.52;;;;;;;9.26;86.50;102099.41;4998560;28;96761;-29
2023/10/17 08:43:14;;;;;;;3.00;1.45;;;;;;;9.30;86.54;102106.47;4998329;28;97991;-28
2023/10/17 08:45:40;;;;;;;2.72;1.75;;;;;;;9.38;86.45;102117.00;4997404;28;99221;-28
2023/10/17 08:48:08;;;;;;;2.08;1.42;;;;;;;9.34;85.88;102121.66;4998039;28;97277;-28
2023/10/17 08:50:43;;;;;;;3.28;1.80;;;;;;;9.32;85.99;102126.22;4996343;28;96817;-29
2023/10/17 08:53:13;;;;;;;2.45;1.15;;;;;;;9.32;86.03;102131.63;4998204;28;97341;-28
2023/10/17 08:55:40;;;;;;;3.93;1.80;;;;;;;9.45;86.07;102133.91;4998452;28;97644;-28
2023/10/17 08:58:09;;;;;;;2.05;1.52;;;;;;;9.52;86.07;102141.72;4997977;28;96623;-28
2023/10/17 09:03:37;;;;;;;1.92;1.42;;;;;;;9.66;84.68;102119.56;4995502;28;97883;-28
2023/10/17 09:11:15;;;;;;;3.55;1.77;;;;;;;10.06;84.26;102123.47;4998128;28;96484;-28
2023/10/17 09:16:14;;;;;;;6.10;2.40;;;;;;;10.30;82.98;102126.19;4995791;28;97683;-30
2023/10/17 09:18:54;;;;;;;3.47;2.13;;;;;;;10.39;83.23;102120.38;4996431;28;96835;-28
2023/10/17 09:21:22;;;;;;;4.85;2.00;;;;;;;10.62;83.15;102123.03;4993844;28;96657;-28
2023/10/17 09:23:47;;;;;;;3.80;2.20;;;;;;;10.75;82.03;102122.53;4994175;28;98162;-28
2023/10/17 09:26:19;;;;;;;2.75;1.88;;;;;;;10.85;79.92;102121.22;4994431;28;97362;-28
2023/10/17 09:28:46;;;;;;;4.65;2.65;;;;;;;10.96;79.48;102112.63;4993236;28;96610;-29
2023/10/17 09:31:13;;;;;;;3.67;1.92;;;;;;;11.12;79.80;102121.84;4993471;28;96819;-29
2023/10/17 09:33:44;;;;;;;2.05;1.35;;;;;;;11.15;77.85;102120.84;4992959;28;101119;-28
2023/10/17 09:36:12;;;;;;;2.78;1.77;;;;;;;11.15;77.67;102116.28;4994320;28;98169;-29
2023/10/17 09:38:43;;;;;;;2.75;1.80;;;;;;;11.35;77.38;102111.84;4993717;28;96554;-28
2023/10/17 09:41:11;;;;;;;3.25;1.60;;;;;;;11.68;77.80;102110.31;4994272;28;96664;-28
2023/10/17 09:43:37;;;;;;;2.30;1.48;;;;;;;11.76;76.63;102112.66;4992401;28;101281;-28
2023/10/17 09:46:09;;;;;;;5.60;1.63;;;;;;;11.91;76.35;102116.53;4991905;28;100830;-28
2023/10/17 09:48:36;;;;;;;7.35;2.15;;;;;;;11.98;75.59;102112.56;4994256;28;96644;-28
2023/10/17 09:51:03;;;;;;;5.93;1.90;;;;;;;12.05;74.30;102124.91;4992396;28;96899;-28
2023/10/17 09:53:34;;;;;;;3.55;1.60;;;;;;;12.10;73.42;102127.41;4992649;28;100894;-29
2023/10/17 09:56:22;;;;;;;2.70;1.55;;;;;;;12.26;74.36;102131.16;4992742;28;100772;-28
2023/10/17 09:58:52;;;;;;;2.95;1.85;;;;;;;12.44;74.55;102114.91;4992663;28;96536;-29
2023/10/17 10:01:21;;;;;;;2.72;1.63;;;;;;;12.51;71.04;102108.22;4992324;28;96936;-28
2023/10/17 10:03:51;;;;;;;4.28;1.77;;;;;;;12.70;72.89;102108.16;4991757;28;101189;-28
2023/10/17 10:06:30;;;;;;;4.07;2.03;;;;;;;12.79;69.95;102115.00;4992379;28;101287;-28
2023/10/17 10:09:16;;;;;;;1.98;1.30;;;;;;;12.83;71.43;102100.31;4994161;28;96554;-28
2023/10/17 10:11:50;;;;;;;3.38;1.70;;;;;;;13.04;71.84;102098.28;4993472;28;96834;-28
2023/10/17 10:14:30;;;;;;;3.08;1.55;;;;;;;13.20;70.42;102093.81;4992359;28;100962;-28
2023/10/17 10:16:57;;;;;;;2.75;1.70;;;;;;;13.20;69.90;102090.22;4993368;28;98070;-29
2023/10/17 10:19:24;;;;;;;2.88;1.63;;;;;;;13.06;69.14;102086.41;4992230;28;96613;-28
2023/10/17 10:21:59;;;;;;;3.83;1.77;;;;;;;13.24;69.84;102083.66;4992727;28;96908;-28
2023/10/17 10:24:32;;;;;;;2.65;1.95;;;;;;;13.36;70.37;102077.59;4991861;28;100882;-28
2023/10/17 10:27:10;;;;;;;2.33;1.45;;;;;;;13.26;68.39;102063.56;4992007;28;101020;-28
2023/10/17 10:29:37;;;;;;;5.15;1.25;;;;;;;13.43;68.86;102075.44;4993010;28;96456;-29
2023/10/17 10:32:06;;;;;;;3.13;1.50;;;;;;;13.33;67.52;102067.75;4993118;28;96815;-28
2023/10/17 10:34:36;;;;;;;2.55;1.75;;;;;;;13.44;67.71;102069.88;4991744;28;100831;-28
2023/10/17 10:37:07;;;;;;;2.67;2.08;;;;;;;13.66;68.89;102082.31;4991929;28;100719;-29
2023/10/17 10:39:32;;;;;;;2.70;1.50;;;;;;;13.68;67.97;102074.94;4992167;28;96808;-28
2023/10/17 10:42:02;;;;;;;3.03;1.48;;;;;;;13.92;67.61;102073.63;4993336;28;96854;-28
2023/10/17 10:44:28;;;;;;;2.75;1.88;;;;;;;14.01;67.02;102078.56;4992778;28;97897;-27
2023/10/17 10:46:56;;;;;;;3.40;1.38;;;;;;;14.16;65.04;102076.78;4976277;28;101287;-29
2023/10/17 10:49:26;;;;;;;2.70;1.52;;;;;;;14.28;66.16;102067.03;4973123;28;96902;-28
2023/10/17 10:51:52;;;;;;;4.60;1.55;;;;;;;14.22;64.00;102059.19;4971818;28;96861;-29
2023/10/17 10:54:18;;;;;;;5.47;1.92;;;;;;;14.33;64.33;102069.50;4972698;28;98166;-28
2023/10/17 10:56:51;;;;;;;2.70;1.33;;;;;;;14.35;65.16;102065.72;4973194;28;97855;-28
2023/10/17 10:59:23;;;;;;;4.07;1.60;;;;;;;14.41;65.54;102064.47;4971771;28;96704;-27
2023/10/17 11:01:48;;;;;;;;;;;;;;;14.48;63.59;102052.25;4973144;28;96882;-29
2023/10/17 11:04:14;;;;;;;1.05;0.93;;;;;;;14.55;63.92;102055.53;4971741;28;100841;-28
2023/10/17 11:06:40;;;;;;;2.78;1.10;;;;;;;14.39;62.29;102047.31;4971623;28;101017;-29
2023/10/17 11:09:15;;;;;;;2.70;1.10;;;;;;;14.31;61.44;102052.34;4971562;28;96767;-28
2023/10/17 11:11:49;;;;;;;3.53;1.42;;;;;;;14.33;61.01;102039.53;4972119;28;97264;-28
2023/10/17 11:14:18;;;;;;;1.83;1.08;;;;;;;14.51;61.94;102034.81;4971262;28;101074;-28
2023/10/17 11:16:50;;;;;;;2.00;0.98;;;;;;;14.57;60.84;102035.38;4971237;28;100740;-28
2023/10/17 11:19:19;;;;;;;2.13;1.35;;;;;;;14.57;61.57;102032.66;4971112;28;96667;-28
2023/10/17 11:21:52;;;;;;;3.10;0.98;;;;;;;14.80;61.42;102042.19;4971413;28;96628;-28
2023/10/17 11:24:17;;;;;;;1.58;1.00;;;;;;;14.88;60.75;102032.66;4971471;28;99504;-28
2023/10/17 11:26:44;;;;;;;2.20;1.05;;;;;;;14.94;61.46;102029.53;4972550;28;97381;-28
2023/10/17 11:29:10;;;;;;;1.90;1.05;;;;;;;14.81;60.05;102027.56;4972708;28;96562;-29
2023/10/17 11:31:36;;;;;;;1.70;1.08;;;;;;;14.69;59.51;102020.13;4972982;28;96790;-29
2023/10/17 11:34:04;;;;;;;1.83;0.90;;;;;;;14.77;59.02;102012.34;4971215;28;100804;-28
2023/10/17 11:36:35;;;;;;;1.02;0.73;;;;;;;14.93;61.30;102004.13;4972578;28;99310;-28
2023/10/17 11:39:04;;;;;;;2.08;1.13;;;;;;;14.87;59.10;101999.03;4971280;28;96642;-27
2023/10/17 11:41:39;;;;;;;3.63;1.30;;;;;;;15.02;61.01;101999.94;4971112;28;96846;-29
2023/10/17 11:44:06;;;;;;;4.32;1.23;;;;;;;15.20;60.39;101996.06;4969695;28;99009;-28
2023/10/17 11:46:37;;;;;;;2.25;1.30;;;;;;;15.22;60.50;101982.31;4982518;28;100938;-28
2023/10/17 11:49:28;;;;;;;1.50;1.03;;;;;;;15.09;59.60;101993.16;4992272;28;96646;-28
2023/10/17 11:52:01;;;;;;;4.43;1.17;;;;;;;15.05;61.45;101994.28;4990759;28;96728;-28
2023/10/17 11:54:29;;;;;;;2.20;1.40;;;;;;;14.96;58.89;101984.81;4990608;28;101435;-29
2023/10/17 11:56:55;;;;;;;1.92;1.13;;;;;;;14.89;59.20;101991.63;4979348;28;100768;-28
2023/10/17 11:59:21;;;;;;;1.58;0.95;;;;;;;14.86;60.78;101972.72;4972484;28;96509;-28
2023/10/17 12:01:52;;;;;;;3.10;1.23;;;;;;;14.95;61.06;101974.03;4972791;28;96894;-28
2023/10/17 12:04:18;;;;;;;2.87;1.13;;;;;;;14.89;59.34;101974.38;4972264;28;98028;-28
2023/10/17 12:06:47;;;;;;;2.53;1.25;;;;;;;14.86;60.26;101964.53;4970832;28;101129;-28
2023/10/17 12:09:22;;;;;;;2.63;1.45;;;;;;;14.89;59.49;101968.94;4970516;28;97072;-28
2023/10/17 12:11:52;;;;;;;1.65;1.20;;;;;;;15.01;59.74;101958.13;4972343;28;96605;-28
2023/10/17 12:14:21;;;;;;;2.53;1.30;;;;;;;15.01;58.15;101963.56;4972030;28;100166;-28
2023/10/17 12:16:54;;;;;;;2.90;1.40;;;;;;;14.98;59.93;101952.88;4970402;28;101624;-28
2023/10/17 12:19:26;;;;;;;1.88;1.33;;;;;;;14.99;58.83;101951.91;4970677;28;96703;-29
2023/10/17 12:21:53;;;;;;;1.85;1.02;;;;;;;14.84;57.39;101931.91;4970810;28;96653;-28
2023/10/17 12:24:24;;;;;;;5.82;1.52;;;;;;;14.94;59.19;101934.91;4970636;28;100862;-28
2023/10/17 12:26:50;;;;;;;2.83;1.10;;;;;;;14.90;59.17;101933.38;4972490;28;98235;-29
2023/10/17 12:29:17;;;;;;;2.40;1.42;;;;;;;14.91;59.08;101918.75;4970412;28;96768;-28
2023/10/17 12:31:42;;;;;;;3.97;1.58;;;;;;;14.91;57.73;101923.34;4970907;28;96904;-29
2023/10/17 12:34:08;;;;;;;4.28;1.67;;;;;;;14.98;57.48;101924.72;4971557;28;97884;-28
2023/10/17 12:36:35;;;;;;;2.00;1.17;;;;;;;14.97;59.44;101912.94;4971858;28;97705;-28
2023/10/17 12:39:02;;;;;;;3.55;1.38;;;;;;;14.92;58.87;101912.34;4971769;28;96482;-28
2023/10/17 12:41:29;;;;;;;2.80;1.48;;;;;;;14.93;60.23;101921.41;4970651;28;96871;-28
2023/10/17 12:43:54;;;;;;;4.70;1.50;;;;;;;14.77;59.50;101916.88;4971752;28;97421;-29
2023/10/17 12:46:20;;;;;;;2.58;1.30;;;;;;;14.64;59.14;101918.63;4971369;28;97739;-28
2023/10/17 12:48:46;;;;;;;2.33;1.00;;;;;;;14.55;58.71;101924.66;4970492;28;96607;-28
2023/10/17 12:51:12;;;;;;;5.13;1.35;;;;;;;14.40;59.37;101921.84;4971769;28;96850;-28
2023/10/17 12:53:37;;;;;;;2.88;1.40;;;;;;;14.38;59.27;101899.25;4971992;28;97309;-27
2023/10/17 12:56:05;;;;;;;8.02;1.92;;;;;;;14.32;59.43;101899.59;4975245;28;97253;-28
2023/10/17 12:58:32;;;;;;;2.55;1.63;;;;;;;14.27;59.78;101887.25;4973003;28;97022;-28
2023/10/17 13:00:58;;;;;;;2.17;1.30;;;;;;;14.14;60.22;101884.38;4973795;28;97075;-28
2023/10/17 13:03:25;;;;;;;2.65;1.40;;;;;;;14.14;61.03;101889.84;4973478;28;101549;-29
2023/10/17 13:05:51;;;;;;;1.33;0.85;;;;;;;14.05;60.42;101882.22;4974819;28;97885;-28
2023/10/17 13:08:16;;;;;;;2.55;1.48;;;;;;;13.98;60.98;101879.84;4975069;28;96598;-28
2023/10/17 13:10:42;;;;;;;1.27;0.82;;;;;;;13.92;60.39;101885.66;4974615;28;103908;-28
2023/10/17 13:13:07;;;;;;;1.33;0.85;;;;;;;13.91;60.44;101883.88;4973247;28;100843;-29
2023/10/17 13:15:33;;;;;;;3.60;1.15;;;;;;;13.92;60.96;101884.75;4975381;28;97333;-28
2023/10/17 13:18:06;;;;;;;2.55;0.98;;;;;;;13.88;61.66;101865.00;4974765;28;96604;-28
2023/10/17 13:20:32;;;;;;;2.35;1.33;;;;;;;13.77;61.41;101867.47;4973310;28;96787;-28
2023/10/17 13:23:03;;;;;;;3.13;1.65;;;;;;;13.74;62.13;101873.13;4974330;28;97861;-28
2023/10/17 13:25:41;;;;;;;5.97;1.80;;;;;;;13.56;61.67;101873.22;4974266;28;99317;-28
2023/10/17 13:28:07;;;;;;;1.63;1.10;;;;;;;13.51;62.08;101867.16;4974562;28;96586;-28
2023/10/17 13:30:33;;;;;;;2.40;1.40;;;;;;;13.38;61.87;101852.50;4973225;28;96697;-28
2023/10/17 13:32:58;;;;;;;4.57;1.25;;;;;;;13.35;62.74;101841.81;4974327;28;99293;-29
2023/10/17 13:35:24;;;;;;;1.80;1.08;;;;;;;13.33;62.64;101850.03;4974202;28;98871;-28
2023/10/17 13:37:54;;;;;;;4.20;0.95;;;;;;;13.26;62.94;101854.03;4972913;28;96674;-29
2023/10/17 13:40:21;;;;;;;1.75;0.90;;;;;;;13.17;63.41;101843.69;4989323;28;96796;-28
2023/10/17 13:42:47;;;;;;;2.78;1.30;;;;;;;13.22;63.70;101860.63;4972708;28;100869;-29
2023/10/17 13:45:13;;;;;;;3.35;1.00;;;;;;;13.14;63.13;101863.78;4971919;28;101377;-28
2023/10/17 13:47:41;;;;;;;1.65;1.13;;;;;;;13.09;62.97;101854.13;4974046;28;96506;-28
2023/10/17 13:50:13;;;;;;;2.70;1.30;;;;;;;13.06;63.09;101852.47;4974017;28;96777;-29
2023/10/17 13:52:42;;;;;;;2.15;1.13;;;;;;;12.98;63.03;101837.53;4973949;28;99279;-28